Ashland, Pennsylvania
Current Conditions -  °F | °C
As of 7:35 PM on Saturday 25 Oct 2014 (Local Time) from KHZL Reporting Station
Clear Clear  
Wind Chill: 61°   Ceiling: Unl
Heat Index: 61°   Visibility: 10mi
Dew Point: 45°   Wind: 7mph
Humidity: 55%   Direction: 240°WSW
Pressure: 29.69"   Gusts: NA
Location:  40.78°N, 76.35°W
Report Text: KHZL 252335Z AUTO 24006KT 210V280 10SM CLR 16/07 A2969 RMK AO2
Loading
Personal Weather Stations






























Interactive Weather Map New forecast layout! Learn more

10-Day Weather Forecast

Advertisements
Track Severe Weather on mobile